Time;durP1;ratioP1;P1;durP2;ratioP2;P2;SDS_P1;SDS_P2;PMS_P1;PMS_P2;Temp;Humidity;BMP_temperature;BMP_pressure;BME280_temperature;BME280_humidity;BME280_pressure;Samples;Min_cycle;Max_cycle;Signal;HPM_P1;HPM_P2
2022/09/09 00:02:26;;;;;;;23.05;13.43;;;;;;;14.60;100.00;101219.91;1767530;81;21048;-77
2022/09/09 00:05:21;;;;;;;27.22;13.18;;;;;;;14.54;100.00;101214.16;1771171;80;21536;-76
2022/09/09 00:07:50;;;;;;;;;;;;;;;14.39;100.00;101214.44;1774681;81;21500;-76
2022/09/09 00:10:33;;;;;;;23.95;14.15;;;;;;;14.27;100.00;101212.45;1771504;81;20543;-76
2022/09/09 00:13:25;;;;;;;28.53;14.13;;;;;;;14.09;100.00;101209.84;1768039;81;21062;-75
2022/09/09 00:16:14;;;;;;;27.30;13.83;;;;;;;14.02;100.00;101209.27;1767852;81;21535;-77
2022/09/09 00:18:58;;;;;;;24.90;13.38;;;;;;;13.93;100.00;101214.91;1769201;80;21036;-76
2022/09/09 00:21:36;;;;;;;;;;;;;;;13.83;100.00;101218.83;1703606;84;21065;-74
2022/09/09 00:24:30;;;;;;;25.70;13.68;;;;;;;13.77;100.00;101229.00;1702192;84;20130;-77
2022/09/09 00:27:05;;;;;;;23.45;13.72;;;;;;;13.71;100.00;101225.41;1693717;84;21020;-77
2022/09/09 00:29:38;;;;;;;27.00;13.32;;;;;;;13.72;100.00;101222.35;1701463;84;21084;-77
2022/09/09 00:32:13;;;;;;;26.20;14.87;;;;;;;13.76;100.00;101231.19;1701464;84;21068;-77
2022/09/09 00:34:48;;;;;;;28.45;13.32;;;;;;;13.82;100.00;101224.90;1764286;81;21028;-75
2022/09/09 00:37:16;;;;;;;22.93;12.73;;;;;;;13.69;100.00;101238.86;1771375;81;21036;-77
2022/09/09 00:39:51;;;;;;;21.20;12.73;;;;;;;13.71;100.00;101238.80;1765148;81;21087;-75
2022/09/09 00:42:19;;;;;;;24.05;12.80;;;;;;;13.69;100.00;101242.75;1766261;81;21063;-77
2022/09/09 00:45:29;;;;;;;26.68;13.43;;;;;;;13.67;100.00;101241.14;1769303;81;21106;-77
2022/09/09 00:47:56;;;;;;;25.62;13.08;;;;;;;13.64;100.00;101244.69;1762061;81;21051;-76
2022/09/09 00:50:49;;;;;;;26.15;13.22;;;;;;;13.62;100.00;101247.80;1773857;80;21040;-76
2022/09/09 00:53:37;;;;;;;26.15;13.30;;;;;;;13.60;100.00;101253.06;1762542;81;21066;-76
2022/09/09 00:56:19;;;;;;;22.82;13.20;;;;;;;13.55;100.00;101247.70;1766830;81;21000;-77
2022/09/09 00:59:12;;;;;;;20.32;11.75;;;;;;;13.51;100.00;101248.75;1777608;81;21028;-77
2022/09/09 01:01:39;;;;;;;22.13;13.18;;;;;;;13.47;100.00;101247.20;1771742;80;21618;-76
2022/09/09 01:04:21;;;;;;;23.10;12.40;;;;;;;13.49;100.00;101242.34;1767293;80;21031;-77
2022/09/09 01:06:53;;;;;;;21.30;12.43;;;;;;;13.48;100.00;101239.81;1763478;81;21595;-77
2022/09/09 01:09:28;;;;;;;18.12;11.08;;;;;;;13.44;100.00;101237.81;1768475;81;21051;-76
2022/09/09 01:12:18;;;;;;;18.48;11.50;;;;;;;13.33;100.00;101240.88;1773072;80;21027;-77
2022/09/09 01:15:10;;;;;;;21.17;11.08;;;;;;;13.28;100.00;101244.11;1772309;80;21566;-77
2022/09/09 01:18:07;;;;;;;18.02;11.20;;;;;;;13.27;100.00;101249.34;1769080;81;21107;-77
2022/09/09 01:21:00;;;;;;;18.73;10.63;;;;;;;13.22;100.00;101240.03;1680814;84;21560;-77
2022/09/09 01:24:04;;;;;;;18.42;11.05;;;;;;;13.23;100.00;101246.87;1700296;83;21060;-76
2022/09/09 01:26:42;;;;;;;23.83;11.22;;;;;;;13.17;100.00;101247.14;1693484;83;21104;-77
2022/09/09 01:29:16;;;;;;;20.50;12.03;;;;;;;13.19;100.00;101251.78;1698559;84;21521;-76
2022/09/09 01:32:03;;;;;;;23.55;11.75;;;;;;;13.18;100.00;101244.13;1701769;84;21516;-77
2022/09/09 01:34:38;;;;;;;20.10;12.60;;;;;;;13.21;100.00;101239.63;1715215;83;21075;-78
2022/09/09 01:37:12;;;;;;;21.02;12.23;;;;;;;13.16;100.00;101240.77;1767116;81;21067;-77
2022/09/09 01:39:43;;;;;;;21.87;11.80;;;;;;;13.17;100.00;101238.09;1762447;81;21024;-77
2022/09/09 01:42:16;;;;;;;25.08;13.03;;;;;;;13.20;100.00;101235.39;1769800;81;20991;-77
2022/09/09 01:44:43;;;;;;;27.55;12.70;;;;;;;13.14;100.00;101236.94;1775734;81;21505;-76
2022/09/09 01:47:10;;;;;;;19.67;12.33;;;;;;;13.07;100.00;101237.27;1756377;81;21054;-75
2022/09/09 01:49:46;;;;;;;22.02;12.70;;;;;;;13.08;100.00;101232.04;1731814;81;21091;-77
2022/09/09 01:52:14;;;;;;;21.05;12.13;;;;;;;13.09;100.00;101224.66;1770944;80;21580;-77
2022/09/09 01:54:42;;;;;;;22.67;12.18;;;;;;;13.05;100.00;101226.16;1763684;81;21040;-76
2022/09/09 01:57:21;;;;;;;23.25;13.08;;;;;;;13.13;100.00;101226.20;1770186;80;21100;-76
2022/09/09 02:00:06;;;;;;;25.88;12.45;;;;;;;13.02;100.00;101226.67;1746923;81;21062;-77
2022/09/09 02:02:46;;;;;;;;;;;;;;;13.06;100.00;101224.80;1766846;81;21126;-77
2022/09/09 02:05:37;;;;;;;19.35;11.30;;;;;;;12.78;100.00;101226.42;1765534;81;20089;-77
2022/09/09 02:08:30;;;;;;;20.43;10.30;;;;;;;12.68;100.00;101230.30;1741603;81;21487;-77
2022/09/09 02:11:09;;;;;;;;;;;;;;;12.69;100.00;101235.83;1768838;81;21038;-77
2022/09/09 02:13:39;;;;;;;15.90;9.48;;;;;;;12.66;100.00;101238.55;1769370;81;20108;-77
2022/09/09 02:16:40;;;;;;;15.83;9.15;;;;;;;12.61;100.00;101234.84;1767446;80;21048;-77
2022/09/09 02:19:26;;;;;;;16.65;9.20;;;;;;;12.58;100.00;101242.28;1771567;81;20993;-77
2022/09/09 02:22:02;;;;;;;19.15;9.45;;;;;;;12.64;100.00;101241.20;1747700;81;21114;-77
2022/09/09 02:24:34;;;;;;;17.80;9.28;;;;;;;12.55;100.00;101245.43;1767670;81;21463;-76
2022/09/09 02:27:09;;;;;;;16.55;9.85;;;;;;;12.53;100.00;101245.52;1765777;81;21063;-76
2022/09/09 02:29:45;;;;;;;25.97;11.40;;;;;;;12.58;100.00;101242.73;1775268;81;21530;-77
2022/09/09 02:32:20;;;;;;;23.60;10.85;;;;;;;12.61;100.00;101244.75;1742006;81;21051;-76
2022/09/09 02:34:55;;;;;;;21.85;11.20;;;;;;;12.67;100.00;101246.68;1769130;81;21043;-77
2022/09/09 02:37:28;;;;;;;21.95;11.25;;;;;;;12.69;100.00;101247.03;1763441;81;21050;-77
2022/09/09 02:39:56;;;;;;;24.70;12.25;;;;;;;12.75;100.00;101247.20;1768266;81;21055;-77
2022/09/09 02:42:25;;;;;;;21.37;11.83;;;;;;;12.75;100.00;101245.91;1768839;81;21587;-77
2022/09/09 02:44:53;;;;;;;21.05;11.25;;;;;;;12.71;100.00;101247.80;1769093;81;21073;-77
2022/09/09 02:47:30;;;;;;;18.25;11.22;;;;;;;12.67;100.00;101244.93;1764876;81;21051;-75
2022/09/09 02:50:14;;;;;;;20.70;11.45;;;;;;;12.68;100.00;101251.79;1769292;81;21052;-75
2022/09/09 02:53:13;;;;;;;23.47;11.97;;;;;;;12.66;100.00;101258.77;1766288;81;21043;-76
2022/09/09 02:55:45;;;;;;;23.90;11.75;;;;;;;12.58;100.00;101262.11;1752295;81;21031;-76
2022/09/09 02:58:17;;;;;;;21.40;11.57;;;;;;;12.59;100.00;101263.77;1765989;81;21067;-76
2022/09/09 03:00:49;;;;;;;18.25;11.28;;;;;;;12.56;100.00;101267.79;1769166;81;21488;-76
2022/09/09 03:03:19;;;;;;;19.55;11.83;;;;;;;12.53;100.00;101272.63;1769024;81;21519;-77
2022/09/09 03:05:47;;;;;;;21.50;12.10;;;;;;;12.52;100.00;101275.27;1746390;81;21000;-76
2022/09/09 03:08:14;;;;;;;21.17;12.28;;;;;;;12.44;100.00;101280.73;1771340;81;21004;-77
2022/09/09 03:10:43;;;;;;;21.20;12.18;;;;;;;12.39;100.00;101280.09;1763756;81;21024;-76
2022/09/09 03:13:12;;;;;;;21.75;11.78;;;;;;;12.40;100.00;101286.92;1771371;81;21020;-77
2022/09/09 03:15:40;;;;;;;23.62;12.47;;;;;;;12.42;100.00;101285.11;1770103;81;21103;-76
2022/09/09 03:18:09;;;;;;;24.10;12.20;;;;;;;12.30;100.00;101284.30;1767153;81;21055;-76
2022/09/09 03:20:36;;;;;;;24.02;12.45;;;;;;;12.20;100.00;101287.69;1764636;81;21556;-77
2022/09/09 03:23:05;;;;;;;21.30;12.45;;;;;;;12.14;100.00;101284.87;1768942;81;21086;-76
2022/09/09 03:25:33;;;;;;;23.18;12.68;;;;;;;12.12;100.00;101284.09;1767680;81;21555;-77
2022/09/09 03:28:01;;;;;;;23.12;12.75;;;;;;;12.13;100.00;101287.55;1767839;81;21125;-76
2022/09/09 03:30:28;;;;;;;21.93;12.13;;;;;;;11.98;100.00;101293.67;1766518;81;21079;-77
2022/09/09 03:32:56;;;;;;;22.15;12.78;;;;;;;11.99;100.00;101290.19;1769165;81;21587;-76
2022/09/09 03:35:26;;;;;;;23.95;12.98;;;;;;;12.00;100.00;101291.02;1769411;81;21115;-77
2022/09/09 03:37:54;;;;;;;19.48;11.85;;;;;;;11.98;100.00;101294.97;1769237;81;21094;-77
2022/09/09 03:40:21;;;;;;;21.85;12.50;;;;;;;12.08;100.00;101298.02;1769144;81;20980;-77
2022/09/09 03:42:48;;;;;;;21.68;11.97;;;;;;;12.14;100.00;101302.95;1769279;81;21055;-77
2022/09/09 03:45:16;;;;;;;23.32;13.03;;;;;;;12.18;100.00;101308.38;1760919;81;21026;-77
2022/09/09 03:47:44;;;;;;;22.62;12.80;;;;;;;12.26;100.00;101302.10;1764297;81;21066;-77
2022/09/09 03:50:11;;;;;;;22.98;12.58;;;;;;;12.27;100.00;101300.77;1768993;81;21050;-78
2022/09/09 03:52:42;;;;;;;24.37;12.60;;;;;;;12.28;100.00;101299.84;1765822;81;21062;-77
2022/09/09 03:55:10;;;;;;;21.70;11.93;;;;;;;12.28;100.00;101294.69;1768018;81;21500;-77
2022/09/09 03:57:38;;;;;;;23.00;12.75;;;;;;;12.23;100.00;101294.03;1765127;80;21083;-76
2022/09/09 04:00:09;;;;;;;20.37;12.50;;;;;;;12.29;100.00;101304.58;1762206;81;21058;-77
2022/09/09 04:02:46;;;;;;;20.88;12.25;;;;;;;12.16;100.00;101306.77;1769223;81;21032;-77
2022/09/09 04:05:15;;;;;;;22.15;11.68;;;;;;;12.27;100.00;101303.80;1767938;81;21043;-77
2022/09/09 04:07:43;;;;;;;20.20;12.15;;;;;;;12.29;100.00;101304.58;1768457;81;21024;-76
2022/09/09 04:10:11;;;;;;;19.57;11.80;;;;;;;12.19;100.00;101311.37;1768957;81;21068;-77
2022/09/09 04:12:39;;;;;;;24.35;12.53;;;;;;;12.12;100.00;101309.91;1762809;81;21074;-77
2022/09/09 04:15:08;;;;;;;22.20;12.33;;;;;;;12.35;100.00;101305.64;1770068;80;21077;-77
2022/09/09 04:17:36;;;;;;;21.75;13.18;;;;;;;12.45;100.00;101309.97;1766415;81;21064;-77
2022/09/09 04:20:03;;;;;;;20.68;12.43;;;;;;;12.54;100.00;101316.91;1768937;81;21615;-77
2022/09/09 04:22:31;;;;;;;21.45;12.37;;;;;;;12.57;100.00;101318.09;1771019;81;21063;-76
2022/09/09 04:25:01;;;;;;;21.77;12.45;;;;;;;12.59;100.00;101320.59;1769845;81;21579;-77
2022/09/09 04:27:29;;;;;;;21.33;12.13;;;;;;;12.53;100.00;101328.59;1766073;81;21103;-77
2022/09/09 04:29:56;;;;;;;21.45;12.43;;;;;;;12.65;100.00;101325.98;1769394;81;20980;-76
2022/09/09 04:32:26;;;;;;;20.70;12.05;;;;;;;12.79;100.00;101321.09;1763316;81;21066;-76
2022/09/09 04:34:53;;;;;;;21.45;12.30;;;;;;;12.77;100.00;101325.06;1775172;81;21051;-77
2022/09/09 04:37:20;;;;;;;18.98;11.35;;;;;;;12.72;100.00;101326.97;1765351;81;21036;-76
2022/09/09 04:39:47;;;;;;;23.92;11.85;;;;;;;12.70;100.00;101324.90;1766592;81;21031;-77
2022/09/09 04:42:16;;;;;;;22.13;12.45;;;;;;;12.76;100.00;101331.11;1768855;81;21028;-77
2022/09/09 04:44:43;;;;;;;21.97;12.40;;;;;;;13.00;100.00;101334.45;1768897;81;21091;-76
2022/09/09 04:47:11;;;;;;;22.45;12.40;;;;;;;13.16;100.00;101339.00;1765234;81;21590;-77
2022/09/09 04:49:38;;;;;;;25.27;12.40;;;;;;;13.24;100.00;101335.64;1769423;81;20989;-77
2022/09/09 04:52:05;;;;;;;25.60;12.75;;;;;;;13.39;100.00;101334.17;1761598;81;21519;-76
2022/09/09 04:54:32;;;;;;;24.95;13.03;;;;;;;13.58;100.00;101333.78;1743891;81;21006;-76
2022/09/09 04:56:59;;;;;;;22.85;13.03;;;;;;;13.79;100.00;101341.05;1683408;82;21035;-77
2022/09/09 04:59:25;;;;;;;20.97;13.08;;;;;;;13.98;100.00;101331.16;1689263;84;21471;-77
2022/09/09 05:01:55;;;;;;;24.50;14.00;;;;;;;14.13;100.00;101333.06;1681939;84;21042;-77
2022/09/09 05:04:21;;;;;;;24.15;12.95;;;;;;;14.38;100.00;101331.93;1665029;85;21533;-77
2022/09/09 05:06:48;;;;;;;24.30;13.30;;;;;;;14.59;100.00;101329.63;1679930;84;21085;-77
2022/09/09 05:09:15;;;;;;;22.27;12.90;;;;;;;14.84;100.00;101336.22;1709071;83;21004;-77
2022/09/09 05:11:43;;;;;;;23.40;13.93;;;;;;;15.06;100.00;101326.09;1684998;84;20987;-77
2022/09/09 05:14:14;;;;;;;25.75;13.70;;;;;;;15.17;100.00;101326.41;1674134;84;21607;-76
2022/09/09 05:16:42;;;;;;;24.02;13.65;;;;;;;15.27;100.00;101326.33;1682365;84;21099;-76
2022/09/09 05:19:09;;;;;;;27.45;13.88;;;;;;;15.28;100.00;101324.09;1726557;82;21359;-77
2022/09/09 05:21:41;;;;;;;23.27;12.80;;;;;;;15.45;100.00;101327.16;1732458;82;21050;-78
2022/09/09 05:24:09;;;;;;;23.32;13.53;;;;;;;15.59;100.00;101329.00;1735625;82;21113;-77
2022/09/09 05:26:37;;;;;;;26.27;13.75;;;;;;;15.65;100.00;101323.50;1735578;82;21533;-77
2022/09/09 05:29:04;;;;;;;24.67;13.32;;;;;;;15.74;100.00;101326.12;1719169;82;21101;-76
2022/09/09 05:31:32;;;;;;;22.48;13.95;;;;;;;15.75;100.00;101335.57;1737753;82;21120;-77
2022/09/09 05:34:01;;;;;;;21.27;13.93;;;;;;;15.80;100.00;101327.09;1737641;82;21033;-76
2022/09/09 05:36:28;;;;;;;23.60;13.62;;;;;;;15.89;100.00;101321.39;1738167;82;21104;-76
2022/09/09 05:38:56;;;;;;;22.95;13.83;;;;;;;15.97;100.00;101320.52;1734703;82;21061;-77
2022/09/09 05:41:25;;;;;;;23.98;13.03;;;;;;;16.03;100.00;101328.45;1732897;82;21542;-76
2022/09/09 05:43:53;;;;;;;19.60;12.07;;;;;;;16.14;100.00;101331.32;1726720;82;21619;-76
2022/09/09 05:46:24;;;;;;;22.73;13.28;;;;;;;16.28;100.00;101334.47;1732507;82;21432;-76
2022/09/09 05:48:53;;;;;;;22.35;13.03;;;;;;;16.42;100.00;101338.44;1737854;82;21022;-77
2022/09/09 05:51:26;;;;;;;18.52;12.37;;;;;;;16.52;100.00;101334.84;1721913;82;21046;-76
2022/09/09 05:54:00;;;;;;;20.48;11.08;;;;;;;16.66;100.00;101339.27;1705859;82;21169;-77
2022/09/09 05:56:30;;;;;;;19.62;11.63;;;;;;;16.87;100.00;101340.30;1734959;82;21120;-76
2022/09/09 05:58:59;;;;;;;19.42;11.53;;;;;;;16.99;100.00;101332.66;1734469;82;21498;-77
2022/09/09 06:01:32;;;;;;;18.40;10.55;;;;;;;17.21;100.00;101331.38;1729574;82;21077;-77
2022/09/09 06:04:00;;;;;;;16.87;9.80;;;;;;;17.39;100.00;101338.58;1740944;82;21352;-76
2022/09/09 06:06:36;;;;;;;19.12;9.73;;;;;;;17.65;100.00;101339.61;1741302;82;21110;-76
2022/09/09 06:09:09;;;;;;;16.20;9.10;;;;;;;17.95;100.00;101347.83;1743066;82;21034;-76
2022/09/09 06:11:40;;;;;;;13.85;9.38;;;;;;;18.18;99.56;101348.98;1716829;82;21035;-76
2022/09/09 06:14:08;;;;;;;15.60;9.28;;;;;;;18.31;97.88;101353.81;1743755;82;21069;-77
2022/09/09 06:16:37;;;;;;;15.58;9.05;;;;;;;18.44;96.65;101360.38;1740892;82;21031;-77
2022/09/09 06:19:06;;;;;;;17.75;9.13;;;;;;;18.46;92.76;101366.81;1733726;81;21101;-76
2022/09/09 06:21:37;;;;;;;15.55;9.38;;;;;;;18.57;92.90;101360.42;1728587;82;21168;-76
2022/09/09 06:24:05;;;;;;;17.75;8.83;;;;;;;18.67;92.01;101361.98;1760743;80;20996;-77
2022/09/09 06:26:36;;;;;;;15.93;8.28;;;;;;;18.75;91.24;101357.92;1772199;81;20981;-77
2022/09/09 06:29:04;;;;;;;13.25;8.60;;;;;;;18.90;89.90;101370.48;1765934;81;21534;-77
2022/09/09 06:31:36;;;;;;;18.98;8.75;;;;;;;18.94;89.10;101366.75;1775423;81;21146;-77
2022/09/09 06:34:09;;;;;;;17.02;8.98;;;;;;;19.10;89.36;101374.84;1729107;83;21595;-77
2022/09/09 06:36:39;;;;;;;15.38;9.08;;;;;;;19.17;86.73;101376.13;1768759;81;21571;-77
2022/09/09 06:39:08;;;;;;;18.00;8.90;;;;;;;19.28;88.43;101374.95;1727794;82;21040;-77
2022/09/09 06:41:37;;;;;;;18.02;9.43;;;;;;;19.19;86.05;101381.61;1769025;81;21071;-77
2022/09/09 06:44:06;;;;;;;14.93;9.13;;;;;;;19.30;85.22;101384.83;1730246;82;21095;-77
2022/09/09 06:46:35;;;;;;;22.93;9.65;;;;;;;19.47;85.48;101389.37;1701998;84;21049;-77
2022/09/09 06:49:03;;;;;;;24.12;10.35;;;;;;;19.52;84.55;101393.80;1717254;83;21515;-76
2022/09/09 06:51:33;;;;;;;26.52;10.03;;;;;;;19.59;85.19;101392.46;1709069;83;21083;-76
2022/09/09 06:54:04;;;;;;;25.30;10.28;;;;;;;19.62;84.30;101396.98;1702467;83;21039;-77
2022/09/09 06:56:34;;;;;;;20.37;9.95;;;;;;;19.69;84.34;101390.89;1713348;83;21231;-77
2022/09/09 06:59:05;;;;;;;18.92;9.40;;;;;;;19.81;83.16;101392.69;1704644;83;21055;-77
2022/09/09 07:01:37;;;;;;;21.23;9.38;;;;;;;19.80;83.53;101398.84;1717041;83;21068;-77
2022/09/09 07:04:07;;;;;;;21.73;10.15;;;;;;;19.87;83.44;101403.20;1673269;85;21024;-78
2022/09/09 07:06:40;;;;;;;23.75;10.43;;;;;;;19.90;82.26;101397.74;1685780;83;21576;-77
2022/09/09 07:09:10;;;;;;;13.78;8.15;;;;;;;19.97;82.86;101393.78;1721736;82;21031;-76
2022/09/09 07:11:43;;;;;;;20.75;10.00;;;;;;;20.07;80.99;101397.86;1762396;81;21512;-77
2022/09/09 07:14:13;;;;;;;25.90;8.45;;;;;;;20.12;80.91;101408.02;1759169;81;21069;-77
2022/09/09 07:16:42;;;;;;;18.07;8.70;;;;;;;20.32;80.79;101406.62;1730787;82;21086;-77
2022/09/09 07:19:10;;;;;;;18.75;9.10;;;;;;;20.46;80.77;101402.55;1767813;81;21059;-77
2022/09/09 07:21:40;;;;;;;20.77;9.18;;;;;;;20.67;80.52;101401.97;1730667;82;21017;-77
2022/09/09 07:24:09;;;;;;;21.10;8.38;;;;;;;20.74;79.53;101407.96;1749488;81;21048;-78
2022/09/09 07:26:39;;;;;;;19.27;10.05;;;;;;;20.80;77.85;101407.52;1761884;81;20986;-77
2022/09/09 07:29:06;;;;;;;20.88;9.55;;;;;;;20.73;78.19;101404.14;1730715;82;21131;-77
2022/09/09 07:31:37;;;;;;;17.60;7.50;;;;;;;20.81;78.71;101404.41;1758298;81;21544;-77
2022/09/09 07:34:06;;;;;;;19.90;8.73;;;;;;;20.85;76.06;101408.48;1735959;82;21079;-77
2022/09/09 07:36:41;;;;;;;16.82;7.65;;;;;;;21.03;76.76;101402.84;1702205;84;21037;-77
2022/09/09 07:39:13;;;;;;;14.83;7.75;;;;;;;21.18;76.30;101408.23;1697763;84;21131;-77
2022/09/09 07:41:46;;;;;;;16.30;8.20;;;;;;;21.09;76.12;101405.01;1697917;83;21218;-77
2022/09/09 07:44:19;;;;;;;17.10;7.97;;;;;;;21.23;75.88;101403.50;1707038;84;21079;-77
2022/09/09 07:46:48;;;;;;;14.85;7.50;;;;;;;21.27;73.71;101406.70;1742324;81;21043;-77
2022/09/09 07:49:17;;;;;;;32.40;14.00;;;;;;;21.49;73.83;101408.57;1768744;81;21091;-77
2022/09/09 07:51:47;;;;;;;16.77;8.00;;;;;;;21.57;72.77;101407.51;1724667;82;21065;-78
2022/09/09 07:54:20;;;;;;;24.85;8.68;;;;;;;21.76;73.12;101403.84;1700547;84;21052;-77
2022/09/09 07:56:47;;;;;;;27.00;9.10;;;;;;;21.64;72.93;101408.73;1772683;81;21074;-77
2022/09/09 07:59:14;;;;;;;35.85;10.20;;;;;;;21.57;72.73;101418.84;1733219;82;21501;-77
2022/09/09 08:01:54;;;;;;;35.20;10.13;;;;;;;21.56;72.63;101409.30;1707553;84;21036;-78
2022/09/09 08:04:23;;;;;;;36.42;11.15;;;;;;;21.62;71.71;101409.80;1704514;82;21098;-76
2022/09/09 08:06:56;;;;;;;28.10;8.30;;;;;;;21.62;71.47;101400.63;1761839;81;21535;-76
2022/09/09 08:09:26;;;;;;;31.15;9.30;;;;;;;21.73;70.47;101403.24;1766098;81;21022;-77
2022/09/09 08:11:53;;;;;;;22.67;8.18;;;;;;;21.59;70.54;101405.16;1761130;81;21078;-77
2022/09/09 08:14:20;;;;;;;15.18;7.60;;;;;;;21.83;70.76;101402.06;1765052;81;21052;-78
2022/09/09 08:16:48;;;;;;;33.75;10.13;;;;;;;;;;1766433;81;21125;-77
2022/09/09 08:19:17;;;;;;;37.50;10.43;;;;;;;21.87;70.30;101408.25;1770629;81;21595;-77
2022/09/09 08:21:45;;;;;;;29.07;9.63;;;;;;;21.93;71.12;101399.08;1767753;81;21028;-76
2022/09/09 08:24:16;;;;;;;22.05;8.63;;;;;;;22.04;70.73;101393.84;1768880;81;21036;-78
2022/09/09 08:26:50;;;;;;;20.97;9.33;;;;;;;21.76;71.41;101393.84;1769090;81;21040;-78
2022/09/09 08:29:19;;;;;;;22.60;8.65;;;;;;;21.84;72.00;101387.53;1769106;81;21535;-77
2022/09/09 08:31:54;;;;;;;22.30;9.03;;;;;;;22.07;71.76;101394.07;1769192;81;21028;-77
2022/09/09 08:34:23;;;;;;;22.32;9.00;;;;;;;22.27;71.41;101388.11;1749596;81;21087;-77
2022/09/09 08:36:52;;;;;;;22.13;8.05;;;;;;;22.16;71.05;101387.62;1759139;81;21054;-78
2022/09/09 08:39:22;;;;;;;17.25;7.17;;;;;;;22.10;71.02;101388.12;1768242;81;21047;-77
2022/09/09 08:42:11;;;;;;;16.93;7.95;;;;;;;22.24;70.46;101389.65;1769016;81;21106;-78
2022/09/09 08:44:54;;;;;;;17.73;7.65;;;;;;;22.09;70.13;101390.37;1769158;81;21032;-78
2022/09/09 08:48:03;;;;;;;24.23;8.73;;;;;;;22.05;71.17;101385.01;1731114;81;21016;-77
2022/09/09 08:50:38;;;;;;;11.85;6.40;;;;;;;22.12;71.47;101395.84;1764601;81;21106;-76
2022/09/09 08:53:21;;;;;;;13.35;6.87;;;;;;;22.21;70.20;101389.87;1763939;81;21027;-77
2022/09/09 08:56:04;;;;;;;8.05;6.15;;;;;;;22.34;69.76;101387.13;1768373;81;21043;-77
2022/09/09 08:58:52;;;;;;;12.60;6.45;;;;;;;22.45;69.61;101383.67;1759849;81;21054;-78
2022/09/09 09:01:54;;;;;;;14.58;6.85;;;;;;;22.41;69.53;101372.58;1766022;81;21046;-77
2022/09/09 09:04:31;;;;;;;17.23;6.92;;;;;;;22.36;70.06;101372.96;1768619;79;21071;-78
2022/09/09 09:07:31;;;;;;;12.05;6.30;;;;;;;22.27;70.17;101369.75;1765790;81;21172;-76
2022/09/09 09:10:15;;;;;;;13.35;6.55;;;;;;;22.35;70.21;101375.70;1729782;83;21512;-77
2022/09/09 09:12:45;;;;;;;11.30;6.58;;;;;;;22.27;70.10;101367.61;1728471;82;21065;-77
2022/09/09 09:15:25;;;;;;;17.15;7.42;;;;;;;22.52;71.61;101375.64;1728587;82;21046;-77
2022/09/09 09:17:52;;;;;;;18.40;7.33;;;;;;;22.64;70.20;101363.32;1695548;84;21110;-77
2022/09/09 09:20:25;;;;;;;15.80;7.20;;;;;;;22.74;71.24;101369.00;1697752;84;21562;-78
2022/09/09 09:22:55;;;;;;;11.13;6.67;;;;;;;22.57;71.32;101369.07;1704700;84;21103;-78
2022/09/09 09:25:31;;;;;;;12.00;6.70;;;;;;;22.49;70.46;101372.80;1702992;84;21382;-77
2022/09/09 09:28:18;;;;;;;14.55;6.30;;;;;;;22.72;70.79;101369.59;1682861;84;21529;-77
2022/09/09 09:31:07;;;;;;;16.57;6.95;;;;;;;23.07;70.58;101368.98;1746712;81;20974;-78
2022/09/09 09:33:50;;;;;;;12.37;6.78;;;;;;;23.12;70.28;101376.02;1749530;81;21010;-77
2022/09/09 09:36:17;;;;;;;10.70;6.87;;;;;;;23.32;69.42;101381.74;1744926;81;21081;-77
2022/09/09 09:39:05;;;;;;;13.00;6.55;;;;;;;23.30;69.67;101378.41;1738927;81;21119;-77
2022/09/09 09:41:37;;;;;;;12.33;7.08;;;;;;;23.47;69.82;101382.23;1747503;81;21003;-78
2022/09/09 09:44:08;;;;;;;12.23;6.85;;;;;;;23.14;69.12;101381.98;1746649;81;21055;-78
2022/09/09 09:46:37;;;;;;;19.10;7.40;;;;;;;23.08;69.25;101383.31;1756425;81;20978;-77
2022/09/09 09:49:10;;;;;;;11.97;7.03;;;;;;;22.97;68.73;101380.70;1742155;81;21013;-79
2022/09/09 09:51:38;;;;;;;13.08;7.25;;;;;;;22.91;68.59;101378.12;1744073;81;21508;-78
2022/09/09 09:54:25;;;;;;;14.28;6.80;;;;;;;22.91;67.45;101380.75;1737834;81;21571;-78
2022/09/09 09:56:54;;;;;;;14.38;7.30;;;;;;;23.03;68.34;101386.78;1745927;81;21408;-81
2022/09/09 09:59:39;;;;;;;14.53;7.20;;;;;;;23.23;66.78;101387.76;1739657;81;21016;-77
2022/09/09 10:02:25;;;;;;;13.22;6.80;;;;;;;23.22;66.15;101383.48;1737351;81;21043;-78
2022/09/09 10:05:22;;;;;;;12.73;6.87;;;;;;;23.44;65.74;101388.22;1748778;81;21059;-77
2022/09/09 10:08:13;;;;;;;12.88;6.80;;;;;;;23.38;65.48;101386.48;1724419;81;21098;-76
2022/09/09 10:11:23;;;;;;;10.88;6.75;;;;;;;23.58;65.61;101385.25;1734181;82;21123;-77
2022/09/09 10:14:10;;;;;;;13.08;6.80;;;;;;;23.51;64.25;101381.49;1738443;82;21075;-77
2022/09/09 10:16:57;;;;;;;17.85;7.45;;;;;;;23.46;64.37;101388.92;1736886;82;21067;-77
2022/09/09 10:19:34;;;;;;;13.72;7.05;;;;;;;23.69;63.51;101390.43;1622077;82;21095;-78
2022/09/09 10:22:21;;;;;;;14.35;7.30;;;;;;;23.86;63.27;101389.00;1730828;82;21226;-77
2022/09/09 10:25:11;;;;;;;16.07;6.90;;;;;;;23.82;62.99;101390.23;1734368;82;21118;-76
2022/09/09 10:27:47;;;;;;;15.95;7.40;;;;;;;23.58;63.01;101388.73;1729599;82;21108;-76
2022/09/09 10:30:58;;;;;;;16.30;7.12;;;;;;;23.74;63.60;101388.25;1731322;82;21008;-76
2022/09/09 10:33:39;;;;;;;14.70;6.87;;;;;;;24.00;62.37;101386.00;1732891;82;21023;-78
2022/09/09 10:36:22;;;;;;;14.45;7.28;;;;;;;24.16;61.73;101385.49;1734487;82;21579;-76
2022/09/09 10:39:06;;;;;;;9.23;6.40;;;;;;;24.26;61.55;101389.47;1734469;82;21106;-77
2022/09/09 10:42:14;;;;;;;12.47;6.53;;;;;;;24.33;61.58;101380.08;1730057;82;22129;-77
2022/09/09 10:44:58;;;;;;;10.95;6.25;;;;;;;24.05;61.05;101382.98;1734071;82;21139;-77
2022/09/09 10:47:46;;;;;;;12.47;6.67;;;;;;;24.11;60.96;101378.50;1734332;82;21095;-77
2022/09/09 10:50:42;;;;;;;14.87;6.80;;;;;;;24.11;60.26;101374.56;1733950;81;21024;-77
2022/09/09 10:53:15;;;;;;;12.25;6.12;;;;;;;24.01;60.12;101376.34;1704433;83;21096;-76
2022/09/09 10:55:45;;;;;;;13.70;6.90;;;;;;;23.97;60.74;101369.68;1705678;84;21012;-78
2022/09/09 10:58:25;;;;;;;11.40;6.85;;;;;;;24.09;59.57;101375.18;1720945;82;21575;-76
2022/09/09 11:00:57;;;;;;;15.45;6.92;;;;;;;24.06;59.51;101376.75;1736449;81;21040;-76
2022/09/09 11:03:33;;;;;;;11.85;6.60;;;;;;;24.27;58.73;101373.19;1735878;80;21103;-76
2022/09/09 11:06:06;;;;;;;11.35;6.80;;;;;;;24.37;58.45;101378.84;1737001;82;20992;-75
2022/09/09 11:08:38;;;;;;;12.88;6.72;;;;;;;24.67;57.79;101376.24;1729428;82;21610;-77
2022/09/09 11:11:26;;;;;;;10.82;6.85;;;;;;;24.28;56.73;101366.48;1738971;82;21087;-76
2022/09/09 11:14:10;;;;;;;13.05;6.58;;;;;;;24.63;57.27;101369.09;1737689;82;20984;-76
2022/09/09 11:16:56;;;;;;;17.37;7.30;;;;;;;24.86;56.36;101375.39;1738723;82;21098;-76
2022/09/09 11:19:41;;;;;;;16.02;7.17;;;;;;;24.59;54.70;101369.03;1739427;82;21570;-76
2022/09/09 11:22:38;;;;;;;18.45;7.90;;;;;;;24.48;55.98;101373.92;1736587;82;21158;-77
2022/09/09 11:25:19;;;;;;;13.03;6.70;;;;;;;24.57;56.37;101375.77;1738372;82;21047;-77
2022/09/09 11:27:51;;;;;;;13.35;6.75;;;;;;;24.36;56.05;101375.84;1729361;82;21133;-76
2022/09/09 11:30:26;;;;;;;14.05;7.22;;;;;;;24.01;55.50;101382.91;1735211;82;21098;-76
2022/09/09 11:33:14;;;;;;;14.18;7.12;;;;;;;23.86;55.78;101377.66;1738486;82;21199;-76
2022/09/09 11:35:49;;;;;;;17.65;7.30;;;;;;;23.91;56.35;101381.55;1730792;82;21043;-77
2022/09/09 11:38:39;;;;;;;15.85;6.58;;;;;;;24.07;55.26;101375.80;1736812;82;21056;-76
2022/09/09 11:41:09;;;;;;;16.55;7.30;;;;;;;24.31;54.90;101372.80;1737088;82;21007;-76
2022/09/09 11:43:45;;;;;;;11.33;6.53;;;;;;;24.37;54.73;101364.82;1736001;82;21100;-76
2022/09/09 11:46:15;;;;;;;11.03;6.45;;;;;;;24.66;54.30;101361.44;1736116;82;21114;-76